Time;durP1;ratioP1;P1;durP2;ratioP2;P2;SDS_P1;SDS_P2;PMS_P1;PMS_P2;Temp;Humidity;BMP_temperature;BMP_pressure;BME280_temperature;BME280_humidity;BME280_pressure;Samples;Min_cycle;Max_cycle;Signal;HPM_P1;HPM_P2
2024/01/23 00:01:35;;;;;;;16.10;11.20;;;;;;;4.66;69.59;99864.08;130252;1274;106473;-83
2024/01/23 00:04:40;;;;;;;17.80;11.10;;;;;;;4.64;69.56;99868.67;130321;1267;108416;-84
2024/01/23 00:07:46;;;;;;;17.40;10.70;;;;;;;4.63;69.51;99869.95;130288;1264;108399;-84
2024/01/23 00:10:52;;;;;;;14.60;10.00;;;;;;;4.66;69.74;99869.03;130303;1265;108561;-84
2024/01/23 00:13:57;;;;;;;17.70;11.10;;;;;;;4.71;69.83;99869.33;130285;1265;107980;-84
2024/01/23 00:17:03;;;;;;;18.00;11.00;;;;;;;4.77;69.82;99872.48;130331;1265;106891;-83
2024/01/23 00:20:11;;;;;;;17.30;10.80;;;;;;;4.82;69.75;99870.70;130279;1264;107509;-84
2024/01/23 00:23:16;;;;;;;18.30;10.90;;;;;;;4.84;69.72;99866.80;130377;1265;108759;-83
2024/01/23 00:26:22;;;;;;;17.10;11.20;;;;;;;4.86;69.93;99865.42;130318;1264;108023;-84
2024/01/23 00:29:27;;;;;;;16.00;10.60;;;;;;;4.86;69.89;99868.24;130310;1261;106881;-83
2024/01/23 00:32:33;;;;;;;16.70;11.00;;;;;;;4.85;69.86;99870.14;130356;1264;108759;-82
2024/01/23 00:35:40;;;;;;;17.20;11.50;;;;;;;4.83;70.21;99879.45;130279;1260;107764;-81
2024/01/23 00:38:45;;;;;;;15.90;10.80;;;;;;;4.81;70.27;99876.10;130484;1261;107587;-83
2024/01/23 00:41:51;;;;;;;17.70;10.30;;;;;;;4.79;70.09;99878.19;130421;1260;107801;-82
2024/01/23 00:44:57;;;;;;;18.40;10.50;;;;;;;4.79;70.22;99873.29;130282;1265;107898;-83
2024/01/23 00:48:03;;;;;;;16.00;9.80;;;;;;;4.82;70.59;99878.30;130335;1267;108532;-82
2024/01/23 00:51:08;;;;;;;16.80;10.40;;;;;;;4.86;70.29;99880.24;130400;1265;108634;-83
2024/01/23 00:54:14;;;;;;;16.50;10.20;;;;;;;4.91;70.41;99876.65;130303;1264;108691;-83
2024/01/23 00:57:20;;;;;;;17.00;10.80;;;;;;;4.94;70.35;99875.39;130305;1261;109763;-82
2024/01/23 01:00:25;;;;;;;17.50;11.10;;;;;;;4.94;70.80;99880.80;130310;1266;106840;-82
2024/01/23 01:03:31;;;;;;;15.60;10.20;;;;;;;4.92;70.51;99886.10;130318;1265;107353;-82
2024/01/23 01:06:37;;;;;;;15.40;10.10;;;;;;;4.89;70.42;99891.50;130344;1265;107103;-83
2024/01/23 01:09:43;;;;;;;14.00;12.80;;;;;;;4.87;70.50;99895.33;130281;1267;107987;-83
2024/01/23 01:12:48;;;;;;;17.20;10.90;;;;;;;4.86;70.45;99896.46;130333;1265;107684;-82
2024/01/23 01:15:54;;;;;;;15.60;10.90;;;;;;;4.84;70.51;99900.47;130352;1266;108409;-83
2024/01/23 01:19:00;;;;;;;16.70;11.00;;;;;;;4.83;70.45;99908.52;130362;1265;107734;-83
2024/01/23 01:22:06;;;;;;;16.20;10.30;;;;;;;4.80;70.86;99909.09;130303;1274;106400;-82
2024/01/23 01:25:12;;;;;;;16.00;9.80;;;;;;;4.79;70.98;99905.51;130290;1265;106980;-82
2024/01/23 01:28:19;;;;;;;16.30;9.70;;;;;;;4.82;70.91;99907.41;130278;1264;106709;-82
2024/01/23 01:31:25;;;;;;;19.30;10.50;;;;;;;4.87;71.18;99910.66;130395;1260;106525;-79
2024/01/23 01:34:32;;;;;;;16.40;10.20;;;;;;;4.94;70.87;99916.79;130306;1276;108759;-81
2024/01/23 01:37:37;;;;;;;16.10;9.90;;;;;;;4.99;70.93;99924.70;130310;1265;107959;-81
2024/01/23 01:40:43;;;;;;;14.80;10.00;;;;;;;5.01;70.89;99923.60;130560;1260;106308;-81
2024/01/23 01:43:49;;;;;;;15.10;10.20;;;;;;;5.00;71.04;99922.50;130442;1260;107450;-82
2024/01/23 01:46:55;;;;;;;16.40;10.40;;;;;;;4.97;70.83;99916.76;130304;1265;108551;-83
2024/01/23 01:50:00;;;;;;;17.40;10.70;;;;;;;4.92;71.16;99922.59;130355;1265;108609;-81
2024/01/23 01:53:06;;;;;;;15.60;10.00;;;;;;;4.86;71.09;99917.29;130346;1260;108768;-82
2024/01/23 01:56:12;;;;;;;16.30;10.00;;;;;;;4.81;71.01;99916.45;130301;1264;107635;-82
2024/01/23 01:59:19;;;;;;;15.80;9.60;;;;;;;4.76;70.96;99916.86;130334;1264;108765;-81
2024/01/23 02:02:26;;;;;;;14.30;8.90;;;;;;;4.71;71.21;99917.05;130344;1265;108227;-82
2024/01/23 02:05:32;;;;;;;14.10;8.90;;;;;;;4.67;71.48;99921.75;130325;1264;108872;-82
2024/01/23 02:08:38;;;;;;;14.60;9.20;;;;;;;4.66;71.94;99922.89;130388;1266;106563;-81
2024/01/23 02:11:57;;;;;;;14.20;9.20;;;;;;;4.68;71.53;99922.07;130408;1260;106988;-81
2024/01/23 02:15:06;;;;;;;14.20;8.80;;;;;;;4.70;71.67;99924.52;130322;1266;108657;-82
2024/01/23 02:18:11;;;;;;;14.10;9.50;;;;;;;4.72;71.74;99922.59;130283;1265;108701;-82
2024/01/23 02:21:17;;;;;;;15.10;9.50;;;;;;;4.71;71.82;99925.45;130297;1278;107488;-82
2024/01/23 02:24:23;;;;;;;15.80;9.70;;;;;;;4.70;71.94;99925.42;130328;1261;108787;-84
2024/01/23 02:27:28;;;;;;;14.00;9.70;;;;;;;4.66;72.31;99928.17;130317;1267;106490;-83
2024/01/23 02:30:35;;;;;;;15.10;9.70;;;;;;;4.61;71.99;99932.64;130269;1266;106978;-83
2024/01/23 02:33:40;;;;;;;15.90;9.90;;;;;;;4.56;72.06;99939.21;130340;1264;107276;-83
2024/01/23 02:36:46;;;;;;;16.50;8.60;;;;;;;4.50;72.04;99938.46;130274;1260;107617;-81
2024/01/23 02:39:52;;;;;;;13.30;8.50;;;;;;;4.43;72.18;99939.60;130579;1260;108625;-81
2024/01/23 02:42:58;;;;;;;13.30;8.70;;;;;;;4.41;72.31;99939.41;130380;1260;108511;-81
2024/01/23 02:46:04;;;;;;;15.10;9.00;;;;;;;4.41;72.40;99939.21;130400;1261;107739;-82
2024/01/23 02:49:10;;;;;;;14.60;8.60;;;;;;;4.43;72.39;99937.62;130348;1267;108335;-81
2024/01/23 02:52:16;;;;;;;16.10;9.00;;;;;;;4.44;72.37;99946.37;130314;1261;108661;-83
2024/01/23 02:55:21;;;;;;;13.40;8.50;;;;;;;4.42;72.43;99950.23;130294;1265;108669;-83
2024/01/23 02:58:27;;;;;;;13.70;9.50;;;;;;;4.40;72.65;99951.81;130346;1266;107172;-83
2024/01/23 03:01:32;;;;;;;16.20;9.10;;;;;;;4.35;72.61;99948.29;130338;1261;107144;-83
2024/01/23 03:04:38;;;;;;;15.50;8.90;;;;;;;4.30;72.76;99952.02;130291;1265;108794;-83
2024/01/23 03:07:43;;;;;;;15.20;8.80;;;;;;;4.25;73.02;99953.81;130320;1261;108597;-83
2024/01/23 03:10:49;;;;;;;14.90;8.00;;;;;;;4.19;73.09;99948.98;130346;1265;107701;-83
2024/01/23 03:13:55;;;;;;;15.60;8.10;;;;;;;4.14;73.14;99943.56;130310;1261;107361;-82
2024/01/23 03:17:03;;;;;;;10.50;6.90;;;;;;;4.15;73.32;99945.66;130350;1261;107031;-81
2024/01/23 03:20:11;;;;;;;13.80;8.20;;;;;;;4.16;73.17;99946.75;130239;1267;107746;-83
2024/01/23 03:23:16;;;;;;;12.80;8.10;;;;;;;4.19;73.21;99946.70;130241;1260;106377;-82
2024/01/23 03:26:22;;;;;;;14.60;8.20;;;;;;;4.20;73.24;99946.44;130285;1265;108446;-84
2024/01/23 03:29:29;;;;;;;13.20;7.80;;;;;;;4.19;73.53;99953.38;130290;1260;107659;-83
2024/01/23 03:32:34;;;;;;;15.20;8.10;;;;;;;4.17;73.58;99954.13;130321;1265;107711;-83
2024/01/23 03:35:40;;;;;;;13.40;8.00;;;;;;;4.13;73.64;99950.86;130395;1260;107010;-81
2024/01/23 03:38:47;;;;;;;28.00;12.80;;;;;;;4.11;73.63;99951.05;130527;1265;108735;-81
2024/01/23 03:41:52;;;;;;;329.10;110.20;;;;;;;4.06;73.73;99948.57;130469;1260;107206;-85
2024/01/23 03:44:58;;;;;;;176.90;84.70;;;;;;;4.01;73.91;99955.86;130381;1270;108432;-83
2024/01/23 03:48:04;;;;;;;29.10;15.10;;;;;;;3.95;73.80;99958.63;130339;1264;234675;-83
2024/01/23 03:51:09;;;;;;;225.40;102.30;;;;;;;3.96;74.07;99963.13;130432;1264;107543;-84
2024/01/23 03:54:15;;;;;;;40.10;21.00;;;;;;;3.95;74.12;99958.79;130617;1260;107600;-80
2024/01/23 03:57:21;;;;;;;141.30;73.30;;;;;;;3.98;74.11;99963.16;130109;1266;108876;-80
2024/01/23 04:00:28;;;;;;;58.30;26.60;;;;;;;3.96;74.19;99962.55;130550;1267;107632;-80
2024/01/23 04:03:34;;;;;;;496.90;214.20;;;;;;;3.98;74.36;99968.22;130366;1265;107154;-83
2024/01/23 04:06:40;;;;;;;369.00;162.40;;;;;;;3.98;74.51;99970.02;130338;1260;108556;-81
2024/01/23 04:09:45;;;;;;;373.30;174.10;;;;;;;3.96;74.55;99967.67;130309;1265;107836;-81
2024/01/23 04:12:51;;;;;;;53.10;25.80;;;;;;;3.94;74.69;99968.68;130346;1261;107298;-80
2024/01/23 04:15:57;;;;;;;54.90;33.10;;;;;;;3.93;74.56;99969.29;130378;1265;107533;-80
2024/01/23 04:19:02;;;;;;;19.10;12.40;;;;;;;3.93;74.79;99967.02;130348;1262;107795;-80
2024/01/23 04:22:08;;;;;;;112.80;71.80;;;;;;;3.96;74.88;99967.55;130313;1260;108643;-81
2024/01/23 04:25:14;;;;;;;32.50;18.10;;;;;;;3.96;74.92;99970.30;130311;1261;108658;-80
2024/01/23 04:28:20;;;;;;;20.70;11.80;;;;;;;3.96;74.90;99975.48;130292;1260;106947;-81
2024/01/23 04:31:26;;;;;;;19.50;12.20;;;;;;;3.92;75.22;99976.73;130388;1264;106496;-81
2024/01/23 04:34:32;;;;;;;19.20;12.00;;;;;;;3.88;75.20;99982.48;130377;1260;107993;-79
2024/01/23 04:37:37;;;;;;;17.40;11.00;;;;;;;3.84;75.28;99984.39;130327;1260;108792;-80
2024/01/23 04:40:43;;;;;;;20.10;12.30;;;;;;;3.78;75.30;99984.55;130304;1265;107140;-81
2024/01/23 04:43:48;;;;;;;19.20;11.90;;;;;;;3.73;75.61;99979.64;130298;1261;108374;-82
2024/01/23 04:46:54;;;;;;;16.80;9.70;;;;;;;3.71;75.59;99984.36;130313;1267;106101;-81
2024/01/23 04:49:59;;;;;;;18.60;11.60;;;;;;;3.72;75.57;99989.73;130362;1260;106459;-79
2024/01/23 04:53:05;;;;;;;20.90;13.60;;;;;;;3.73;76.10;99994.73;130259;1264;107973;-81
2024/01/23 04:56:11;;;;;;;28.10;16.80;;;;;;;3.75;75.82;99998.67;130363;1261;108835;-81
2024/01/23 04:59:17;;;;;;;197.70;84.40;;;;;;;3.73;76.04;99998.40;130471;1260;106548;-81
2024/01/23 05:02:27;;;;;;;146.50;55.90;;;;;;;3.69;75.83;100004.70;130446;1260;108582;-81
2024/01/23 05:05:33;;;;;;;133.50;52.30;;;;;;;3.64;76.02;100010.02;130367;1276;107722;-83
2024/01/23 05:08:38;;;;;;;414.70;160.30;;;;;;;3.59;75.93;100014.48;130273;1261;109031;-82
2024/01/23 05:11:44;;;;;;;66.80;38.50;;;;;;;3.57;76.35;100011.09;130314;1260;107658;-81
2024/01/23 05:14:50;;;;;;;30.10;18.60;;;;;;;3.59;76.47;100015.71;130345;1263;107636;-81
2024/01/23 05:17:55;;;;;;;24.20;14.10;;;;;;;3.64;76.84;100020.73;130325;1260;109087;-81
2024/01/23 05:21:01;;;;;;;26.20;15.30;;;;;;;3.72;76.67;100021.19;130364;1264;107562;-79
2024/01/23 05:24:07;;;;;;;24.50;17.10;;;;;;;3.78;76.82;100024.11;130392;1259;108721;-81
2024/01/23 05:27:13;;;;;;;18.80;12.90;;;;;;;3.81;76.62;100034.98;130377;1261;107583;-80
2024/01/23 05:30:19;;;;;;;18.80;13.20;;;;;;;3.81;76.62;100034.80;130280;1267;106349;-80
2024/01/23 05:33:24;;;;;;;18.10;12.20;;;;;;;3.78;76.71;100030.99;130375;1265;107171;-82
2024/01/23 05:36:30;;;;;;;16.30;11.70;;;;;;;3.72;76.90;100030.02;130454;1259;108515;-80
2024/01/23 05:39:39;;;;;;;17.90;11.70;;;;;;;3.66;77.00;100033.40;130299;1261;108679;-82
2024/01/23 05:42:44;;;;;;;14.90;9.80;;;;;;;3.64;77.19;100034.51;130343;1260;108658;-81
2024/01/23 05:45:50;;;;;;;18.50;10.50;;;;;;;3.64;77.13;100031.32;130331;1260;107700;-81
2024/01/23 05:48:55;;;;;;;17.10;10.80;;;;;;;3.65;77.05;100037.05;130340;1265;108449;-81
2024/01/23 05:52:01;;;;;;;20.80;13.80;;;;;;;3.65;77.09;100044.62;130329;1261;107334;-82
2024/01/23 05:55:08;;;;;;;21.90;13.30;;;;;;;3.63;76.93;100048.42;130246;1260;108519;-80
2024/01/23 05:58:13;;;;;;;60.60;27.80;;;;;;;3.61;77.29;100041.94;130438;1262;108662;-83
2024/01/23 06:01:19;;;;;;;201.40;81.70;;;;;;;3.57;77.28;100042.59;130584;1266;108705;-82
2024/01/23 06:04:25;;;;;;;147.30;59.90;;;;;;;3.51;77.39;100043.32;130574;1266;107550;-83
2024/01/23 06:07:30;;;;;;;139.90;52.60;;;;;;;3.49;77.40;100045.45;130274;1268;107130;-80
2024/01/23 06:10:36;;;;;;;278.30;96.10;;;;;;;3.49;77.70;100046.31;130087;1267;107656;-80
2024/01/23 06:13:41;;;;;;;154.30;55.30;;;;;;;3.51;77.71;100044.41;130158;1267;108824;-80
2024/01/23 06:16:47;;;;;;;181.30;80.80;;;;;;;3.51;77.56;100043.52;130347;1262;108643;-77
2024/01/23 06:19:53;;;;;;;183.30;86.40;;;;;;;3.55;77.65;100055.20;130113;1284;108451;-81
2024/01/23 06:22:59;;;;;;;59.60;30.50;;;;;;;3.53;77.62;100056.38;130108;1262;107501;-79
2024/01/23 06:26:05;;;;;;;48.90;26.50;;;;;;;3.51;77.62;100055.07;130089;1280;106783;-80
2024/01/23 06:29:11;;;;;;;52.00;30.40;;;;;;;3.54;77.74;100057.73;130010;1275;108763;-79
2024/01/23 06:32:16;;;;;;;39.50;28.40;;;;;;;3.54;77.87;100059.63;130061;1266;108813;-80
2024/01/23 06:35:22;;;;;;;42.00;24.30;;;;;;;3.52;77.94;100063.52;130193;1264;107666;-79
2024/01/23 06:38:28;;;;;;;19.80;12.70;;;;;;;3.52;78.14;100064.76;130107;1264;108765;-77
2024/01/23 06:41:33;;;;;;;19.60;11.50;;;;;;;3.55;78.16;100070.51;130098;1265;108830;-78
2024/01/23 06:44:39;;;;;;;16.70;11.10;;;;;;;3.58;78.16;100079.99;130082;1263;107106;-79
2024/01/23 06:47:45;;;;;;;31.30;19.50;;;;;;;3.59;78.25;100083.23;130051;1264;107204;-79
2024/01/23 06:50:50;;;;;;;22.00;13.80;;;;;;;3.59;78.12;100089.41;130094;1260;108641;-79
2024/01/23 06:53:56;;;;;;;33.50;21.70;;;;;;;3.58;78.01;100091.42;130142;1260;108484;-79
2024/01/23 06:57:02;;;;;;;24.90;15.10;;;;;;;3.55;78.48;100097.91;130089;1265;107759;-79
2024/01/23 07:00:10;;;;;;;39.20;21.80;;;;;;;3.51;78.39;100102.94;130079;1261;107664;-80
2024/01/23 07:03:16;;;;;;;120.60;43.60;;;;;;;3.48;78.70;100103.67;130198;1264;106991;-78
2024/01/23 07:06:22;;;;;;;148.30;51.00;;;;;;;3.46;78.60;100107.73;130103;1260;108496;-78
2024/01/23 07:09:28;;;;;;;49.50;20.40;;;;;;;3.47;78.69;100113.59;130102;1275;107308;-85
2024/01/23 07:12:33;;;;;;;373.40;122.20;;;;;;;3.54;78.55;100129.45;130100;1264;108599;-78
2024/01/23 07:15:39;;;;;;;73.90;27.10;;;;;;;3.61;78.59;100142.32;130101;1260;107471;-79
2024/01/23 07:18:44;;;;;;;115.50;45.50;;;;;;;3.68;78.58;100143.59;130133;1262;106559;-79
2024/01/23 07:21:50;;;;;;;100.70;40.90;;;;;;;3.76;78.64;100146.35;130107;1266;108591;-78
2024/01/23 07:24:56;;;;;;;112.90;50.20;;;;;;;3.85;78.56;100148.02;130072;1276;107619;-78
2024/01/23 07:28:01;;;;;;;130.70;59.20;;;;;;;3.93;78.54;100155.30;130081;1264;106264;-79
2024/01/23 07:31:07;;;;;;;124.00;51.60;;;;;;;4.03;78.66;100165.33;129935;1265;108821;-79
2024/01/23 07:34:12;;;;;;;90.00;41.20;;;;;;;4.12;78.73;100164.16;129909;1261;107686;-77
2024/01/23 07:37:18;;;;;;;178.20;69.60;;;;;;;4.22;78.67;100172.71;130086;1261;109513;-77
2024/01/23 07:40:24;;;;;;;96.10;45.70;;;;;;;4.32;78.70;100171.23;130106;1264;106727;-77
2024/01/23 07:43:29;;;;;;;69.40;34.50;;;;;;;4.45;78.56;100183.02;130079;1261;107210;-78
2024/01/23 07:46:35;;;;;;;56.30;29.40;;;;;;;4.55;78.41;100180.84;130076;1264;108930;-79
2024/01/23 07:49:41;;;;;;;65.70;41.00;;;;;;;4.64;78.59;100180.63;130110;1261;106681;-79
2024/01/23 07:52:47;;;;;;;28.30;17.30;;;;;;;4.69;78.38;100182.90;130306;1263;107380;-78
2024/01/23 07:55:52;;;;;;;25.80;16.80;;;;;;;4.75;78.47;100188.52;130132;1260;107753;-79
2024/01/23 07:58:59;;;;;;;44.10;25.90;;;;;;;4.80;78.34;100195.69;130284;1263;106868;-78
2024/01/23 08:02:05;;;;;;;38.10;23.90;;;;;;;4.82;78.28;100202.22;130060;1262;107676;-79
2024/01/23 08:05:11;;;;;;;31.00;20.70;;;;;;;4.81;78.07;100205.45;130080;1267;108654;-78
2024/01/23 08:08:16;;;;;;;19.00;11.60;;;;;;;4.77;78.21;100206.83;130079;1267;108567;-77
2024/01/23 08:11:22;;;;;;;15.80;10.10;;;;;;;4.75;78.52;100204.17;130057;1262;108736;-79
2024/01/23 08:14:28;;;;;;;23.70;13.70;;;;;;;4.82;78.42;100211.91;130078;1262;108545;-78
2024/01/23 08:17:33;;;;;;;17.80;9.60;;;;;;;4.94;78.24;100210.48;130050;1262;106192;-78
2024/01/23 08:20:39;;;;;;;13.80;8.90;;;;;;;5.06;78.46;100210.80;130079;1266;107898;-78
2024/01/23 08:23:44;;;;;;;40.70;20.20;;;;;;;5.17;78.25;100203.23;130072;1264;106544;-77
2024/01/23 08:26:54;;;;;;;34.80;17.10;;;;;;;5.28;77.94;100209.41;130093;1266;108034;-79
2024/01/23 08:30:00;;;;;;;148.10;67.40;;;;;;;5.40;77.91;100211.29;130099;1262;106348;-79
2024/01/23 08:33:06;;;;;;;198.70;89.70;;;;;;;5.54;78.22;100221.17;130085;1268;107052;-79
2024/01/23 08:36:12;;;;;;;225.80;107.90;;;;;;;5.59;77.89;100226.52;130101;1266;107830;-79
2024/01/23 08:39:17;;;;;;;165.80;84.50;;;;;;;5.63;77.63;100231.74;130077;1267;108709;-79
2024/01/23 08:42:23;;;;;;;105.40;53.50;;;;;;;5.64;77.76;100232.35;130063;1261;107635;-79
2024/01/23 08:45:28;;;;;;;189.80;106.00;;;;;;;5.64;77.58;100239.04;130093;1262;108589;-79
2024/01/23 08:48:34;;;;;;;75.40;42.90;;;;;;;5.63;77.71;100244.05;130083;1267;107156;-79
2024/01/23 08:51:40;;;;;;;261.60;136.50;;;;;;;5.67;77.80;100242.73;130064;1267;108676;-79
2024/01/23 08:54:46;;;;;;;110.60;59.10;;;;;;;5.75;77.92;100241.91;130124;1264;108630;-79
2024/01/23 08:57:52;;;;;;;192.90;99.10;;;;;;;5.86;77.57;100245.79;130102;1261;108631;-79
2024/01/23 09:00:58;;;;;;;68.30;37.70;;;;;;;5.98;77.49;100247.29;130114;1265;106761;-78
2024/01/23 09:04:03;;;;;;;53.80;34.90;;;;;;;6.07;77.16;100255.75;130039;1266;107784;-78
2024/01/23 09:07:09;;;;;;;28.40;18.00;;;;;;;6.10;77.47;100261.50;130139;1267;106792;-78
2024/01/23 09:10:15;;;;;;;30.40;21.00;;;;;;;6.14;77.07;100264.19;130043;1264;108702;-78
2024/01/23 09:13:22;;;;;;;20.20;13.60;;;;;;;6.19;76.80;100266.09;130083;1264;107033;-79
2024/01/23 09:16:27;;;;;;;24.20;15.80;;;;;;;6.20;77.05;100266.88;130087;1262;107487;-78
2024/01/23 09:19:33;;;;;;;20.10;13.40;;;;;;;6.17;77.10;100261.16;130095;1265;107437;-78
2024/01/23 09:22:39;;;;;;;25.50;17.60;;;;;;;6.07;76.85;100259.33;130028;1262;107156;-78
2024/01/23 09:25:46;;;;;;;34.80;23.50;;;;;;;5.98;76.94;100272.74;130023;1262;107158;-78
2024/01/23 09:28:52;;;;;;;27.10;18.90;;;;;;;5.94;76.93;100288.56;130083;1267;106999;-76
2024/01/23 09:32:00;;;;;;;20.30;12.80;;;;;;;5.94;77.23;100289.96;130077;1262;107477;-77
2024/01/23 09:35:07;;;;;;;21.20;14.10;;;;;;;5.89;77.06;100284.50;130094;1267;108579;-77
2024/01/23 09:38:13;;;;;;;17.30;10.20;;;;;;;5.89;77.07;100287.00;130114;1265;107154;-79
2024/01/23 09:41:19;;;;;;;17.40;9.90;;;;;;;5.95;76.95;100295.58;130033;1262;108702;-79
2024/01/23 09:44:26;;;;;;;18.90;12.00;;;;;;;6.10;76.98;100289.98;130054;1265;107588;-77
2024/01/23 09:47:31;;;;;;;15.60;9.80;;;;;;;6.25;76.96;100290.16;130139;1262;107659;-78
2024/01/23 09:50:41;;;;;;;16.10;9.90;;;;;;;6.37;77.02;100295.01;130112;1266;109042;-77
2024/01/23 09:53:47;;;;;;;14.60;8.70;;;;;;;6.50;76.72;100287.81;130076;1265;108679;-78
2024/01/23 09:56:53;;;;;;;19.00;11.40;;;;;;;6.64;76.80;100286.45;130055;1262;108666;-77
2024/01/23 09:59:59;;;;;;;15.40;9.60;;;;;;;6.84;76.50;100297.19;130082;1262;107644;-77
2024/01/23 10:03:08;;;;;;;14.90;9.70;;;;;;;6.98;76.39;100297.21;130185;1261;107805;-77
2024/01/23 10:06:14;;;;;;;16.90;10.80;;;;;;;7.08;76.33;100301.21;130118;1260;106286;-77
2024/01/23 10:09:20;;;;;;;20.50;11.10;;;;;;;7.10;75.91;100301.20;130151;1260;107831;-77
2024/01/23 10:12:26;;;;;;;14.80;8.50;;;;;;;7.03;75.84;100302.48;130141;1261;107865;-78
2024/01/23 10:15:32;;;;;;;15.50;9.10;;;;;;;6.98;75.84;100304.16;130168;1263;107569;-77
2024/01/23 10:18:38;;;;;;;13.00;7.90;;;;;;;6.94;76.11;100301.50;130106;1264;108534;-77
2024/01/23 10:21:43;;;;;;;14.80;7.40;;;;;;;6.88;75.99;100299.85;130135;1274;108730;-77
2024/01/23 10:24:51;;;;;;;11.90;6.70;;;;;;;6.80;75.83;100301.04;130095;1259;107838;-77
2024/01/23 10:27:57;;;;;;;13.10;6.70;;;;;;;6.70;75.88;100303.98;130102;1259;108629;-77
2024/01/23 10:31:04;;;;;;;13.20;6.60;;;;;;;6.64;75.80;100306.02;130141;1260;107485;-78
2024/01/23 10:34:12;;;;;;;11.40;6.70;;;;;;;6.57;76.04;100302.94;130096;1262;107005;-77
2024/01/23 10:37:18;;;;;;;12.10;6.30;;;;;;;6.53;75.85;100304.36;130104;1265;108451;-77
2024/01/23 10:40:24;;;;;;;14.00;7.00;;;;;;;6.55;76.02;100302.92;130084;1261;108640;-79
2024/01/23 10:43:32;;;;;;;24.00;12.90;;;;;;;6.63;75.92;100308.95;130278;1262;107811;-87
2024/01/23 10:46:39;;;;;;;14.20;7.20;;;;;;;6.67;75.90;100314.98;130294;1277;107531;-78
2024/01/23 10:49:45;;;;;;;16.30;10.70;;;;;;;6.78;76.04;100317.66;130151;1264;107740;-78
2024/01/23 10:52:51;;;;;;;20.90;14.20;;;;;;;6.87;75.72;100312.67;130050;1262;108639;-78
2024/01/23 10:55:58;;;;;;;16.30;10.40;;;;;;;6.87;75.22;100314.58;130071;1261;106438;-78
2024/01/23 10:59:10;;;;;;;16.30;7.70;;;;;;;6.91;75.32;100314.25;130131;1276;107508;-78
2024/01/23 11:02:20;;;;;;;;;;;;;;;6.91;75.28;100319.80;130166;1265;107724;-78
2024/01/23 11:05:39;;;;;;;11.80;7.20;;;;;;;6.94;75.29;100321.84;130178;1264;108061;-78
2024/01/23 11:08:51;;;;;;;20.50;13.50;;;;;;;6.93;75.37;100320.86;130149;1260;106791;-78
2024/01/23 11:12:07;;;;;;;16.30;9.10;;;;;;;6.94;75.30;100326.80;129990;1260;107763;-77
2024/01/23 11:15:16;;;;;;;15.10;7.50;;;;;;;6.96;74.93;100325.03;130070;1264;106662;-77
2024/01/23 11:18:26;;;;;;;13.40;7.20;;;;;;;6.94;75.05;100324.30;130134;1264;106672;-78
2024/01/23 11:21:33;;;;;;;13.30;7.20;;;;;;;6.85;75.04;100320.45;130106;1281;108059;-78
2024/01/23 11:24:43;;;;;;;12.50;8.90;;;;;;;6.82;74.93;100314.02;130094;1265;107112;-78
2024/01/23 11:27:49;;;;;;;14.70;8.70;;;;;;;6.77;74.92;100313.86;130106;1260;106665;-78
2024/01/23 11:31:18;;;;;;;15.70;9.50;;;;;;;6.69;74.85;100308.29;130092;1261;107379;-77
2024/01/23 11:34:40;;;;;;;17.60;9.10;;;;;;;6.60;74.87;100307.49;129838;1262;109658;-77
2024/01/23 11:37:50;;;;;;;17.90;10.50;;;;;;;6.49;74.70;100303.25;130041;1267;108614;-80
2024/01/23 11:40:59;;;;;;;12.80;6.90;;;;;;;6.45;75.31;100299.85;130104;1265;106346;-78
2024/01/23 11:44:16;;;;;;;12.00;7.30;;;;;;;6.46;75.05;100297.83;130054;1264;108680;-80
2024/01/23 11:47:23;;;;;;;15.50;8.40;;;;;;;6.50;74.95;100302.30;130103;1263;107733;-78
2024/01/23 11:50:30;;;;;;;15.80;9.00;;;;;;;6.55;74.97;100309.82;130135;1262;106618;-78
2024/01/23 11:53:38;;;;;;;13.30;8.00;;;;;;;6.57;74.54;100308.58;130177;1260;107756;-77
2024/01/23 11:56:43;;;;;;;22.30;11.20;;;;;;;6.57;74.89;100309.69;130085;1264;108657;-78
2024/01/23 11:59:49;;;;;;;13.40;8.00;;;;;;;6.55;75.06;100313.72;130103;1263;107825;-79
2024/01/23 12:02:55;;;;;;;19.80;11.90;;;;;;;6.56;74.76;100313.95;130107;1265;107804;-78
2024/01/23 12:06:02;;;;;;;16.60;10.50;;;;;;;6.56;74.70;100310.77;130153;1260;106702;-77
2024/01/23 12:09:08;;;;;;;32.40;20.20;;;;;;;6.55;74.58;100303.80;130098;1264;107217;-78
2024/01/23 12:12:13;;;;;;;22.20;14.20;;;;;;;6.53;74.75;100302.58;130097;1261;108723;-78
2024/01/23 12:15:19;;;;;;;17.80;10.90;;;;;;;6.49;74.57;100305.50;130065;1260;106760;-81
2024/01/23 12:18:25;;;;;;;20.80;11.40;;;;;;;6.48;74.70;100313.08;130281;1264;108005;-77
2024/01/23 12:21:33;;;;;;;27.80;17.30;;;;;;;6.46;74.99;100309.64;130117;1264;106091;-80
2024/01/23 12:24:39;;;;;;;20.30;12.20;;;;;;;6.47;74.55;100313.12;130082;1260;108536;-75
2024/01/23 12:27:46;;;;;;;21.00;11.60;;;;;;;6.45;74.48;100313.61;130087;1262;109061;-75
2024/01/23 12:30:52;;;;;;;15.70;9.00;;;;;;;6.42;74.09;100317.44;130177;1259;106507;-75
2024/01/23 12:33:59;;;;;;;13.20;6.30;;;;;;;6.37;73.82;100329.70;130089;1260;108618;-75
2024/01/23 12:37:04;;;;;;;11.40;5.90;;;;;;;6.33;73.83;100333.36;130135;1262;108624;-76
2024/01/23 12:40:14;;;;;;;16.80;9.20;;;;;;;6.25;73.27;100335.24;130091;1259;108466;-76
2024/01/23 12:43:19;;;;;;;24.10;13.70;;;;;;;6.21;73.56;100336.94;130140;1265;107032;-75
2024/01/23 12:46:26;;;;;;;52.40;25.00;;;;;;;6.21;74.08;100343.10;130055;1262;106582;-74
2024/01/23 12:49:36;;;;;;;13.00;7.20;;;;;;;6.20;73.78;100344.08;130133;1260;106434;-76
2024/01/23 12:52:42;;;;;;;43.40;26.80;;;;;;;6.21;73.74;100344.91;130097;1265;107735;-75
2024/01/23 12:55:47;;;;;;;42.40;23.50;;;;;;;6.24;73.74;100350.86;130106;1264;106473;-75
2024/01/23 12:58:54;;;;;;;224.50;106.90;;;;;;;6.28;73.76;100350.13;130072;1264;106921;-75
2024/01/23 13:02:00;;;;;;;83.70;38.00;;;;;;;6.36;73.78;100350.28;130067;1262;106601;-75
2024/01/23 13:05:06;;;;;;;88.20;44.10;;;;;;;6.39;73.47;100351.58;130092;1260;107536;-75
2024/01/23 13:08:12;;;;;;;98.70;52.20;;;;;;;6.39;73.51;100356.54;130153;1264;109060;-75
2024/01/23 13:11:18;;;;;;;124.20;63.40;;;;;;;6.38;73.35;100362.61;130057;1262;106797;-75
2024/01/23 13:14:24;;;;;;;92.70;45.50;;;;;;;6.37;73.78;100365.34;130161;1265;106650;-76
2024/01/23 13:17:30;;;;;;;290.90;135.00;;;;;;;6.34;73.47;100365.80;130338;1263;108881;-75
2024/01/23 13:20:36;;;;;;;186.50;86.10;;;;;;;6.25;73.49;100376.04;130134;1259;107077;-75
2024/01/23 13:23:41;;;;;;;276.20;123.10;;;;;;;6.17;73.71;100383.91;130100;1259;107853;-76
2024/01/23 13:26:47;;;;;;;108.20;43.60;;;;;;;6.11;73.83;100381.93;130083;1260;107585;-75
2024/01/23 13:29:53;;;;;;;244.40;106.20;;;;;;;6.04;73.75;100384.92;130088;1259;108647;-75
2024/01/23 13:32:58;;;;;;;257.80;101.30;;;;;;;5.96;74.09;100389.64;130102;1264;108452;-75
2024/01/23 13:36:05;;;;;;;62.30;26.50;;;;;;;5.89;74.40;100392.77;130120;1262;108446;-75
2024/01/23 13:39:13;;;;;;;302.20;135.00;;;;;;;5.85;74.41;100400.67;130081;1264;106284;-75
2024/01/23 13:42:18;;;;;;;520.20;263.20;;;;;;;5.83;74.46;100399.78;130144;1265;106410;-75
2024/01/23 13:45:26;;;;;;;456.90;229.00;;;;;;;5.87;74.28;100400.46;130138;1259;107544;-75
2024/01/23 13:48:31;;;;;;;475.30;232.90;;;;;;;5.95;74.51;100403.62;130152;1263;106756;-75
2024/01/23 13:51:39;;;;;;;285.70;151.20;;;;;;;6.02;74.48;100403.95;130127;1259;107894;-74
2024/01/23 13:54:45;;;;;;;93.20;46.80;;;;;;;6.06;74.37;100403.81;130115;1264;108743;-75
2024/01/23 13:57:50;;;;;;;81.30;49.20;;;;;;;6.08;74.27;100403.64;130159;1259;108602;-75
2024/01/23 14:00:56;;;;;;;66.30;40.90;;;;;;;6.11;74.38;100408.23;130112;1260;106915;-74